sensor_id;sensor_type;location;lat;lon;timestamp;P1;durP1;ratioP1;P2;durP2;ratioP2
5951;SDS011;3001;42.622;23.194;2022-12-05T00:02:19;18.27;;;12.10;;
5951;SDS011;3001;42.622;23.194;2022-12-05T00:04:46;19.90;;;12.23;;
5951;SDS011;3001;42.622;23.194;2022-12-05T00:07:12;17.17;;;11.50;;
5951;SDS011;3001;42.622;23.194;2022-12-05T00:09:39;23.23;;;12.33;;
5951;SDS011;3001;42.622;23.194;2022-12-05T00:12:06;18.37;;;12.33;;
5951;SDS011;3001;42.622;23.194;2022-12-05T00:14:32;15.80;;;10.83;;
5951;SDS011;3001;42.622;23.194;2022-12-05T00:16:59;21.87;;;11.90;;
5951;SDS011;3001;42.622;23.194;2022-12-05T00:19:27;27.23;;;12.27;;
5951;SDS011;3001;42.622;23.194;2022-12-05T00:21:54;21.73;;;12.90;;
5951;SDS011;3001;42.622;23.194;2022-12-05T00:24:21;28.07;;;11.20;;
5951;SDS011;3001;42.622;23.194;2022-12-05T00:26:49;20.10;;;10.80;;
5951;SDS011;3001;42.622;23.194;2022-12-05T00:29:16;17.33;;;11.63;;
5951;SDS011;3001;42.622;23.194;2022-12-05T00:31:43;15.60;;;10.53;;
5951;SDS011;3001;42.622;23.194;2022-12-05T00:34:10;15.63;;;10.53;;
5951;SDS011;3001;42.622;23.194;2022-12-05T00:36:38;32.73;;;12.00;;
5951;SDS011;3001;42.622;23.194;2022-12-05T00:39:05;19.43;;;11.07;;
5951;SDS011;3001;42.622;23.194;2022-12-05T00:41:34;20.47;;;11.53;;
5951;SDS011;3001;42.622;23.194;2022-12-05T00:44:02;16.97;;;10.97;;
5951;SDS011;3001;42.622;23.194;2022-12-05T00:46:30;18.33;;;12.17;;
5951;SDS011;3001;42.622;23.194;2022-12-05T00:48:59;43.30;;;13.90;;
5951;SDS011;3001;42.622;23.194;2022-12-05T00:51:27;17.00;;;11.97;;
5951;SDS011;3001;42.622;23.194;2022-12-05T00:53:58;19.47;;;12.20;;
5951;SDS011;3001;42.622;23.194;2022-12-05T00:56:26;17.67;;;10.87;;
5951;SDS011;3001;42.622;23.194;2022-12-05T00:58:54;17.47;;;11.53;;
5951;SDS011;3001;42.622;23.194;2022-12-05T01:01:23;15.97;;;10.80;;
5951;SDS011;3001;42.622;23.194;2022-12-05T01:03:53;15.97;;;9.87;;
5951;SDS011;3001;42.622;23.194;2022-12-05T01:06:21;15.23;;;10.43;;
5951;SDS011;3001;42.622;23.194;2022-12-05T01:08:48;16.50;;;10.43;;
5951;SDS011;3001;42.622;23.194;2022-12-05T01:11:17;14.87;;;10.00;;
5951;SDS011;3001;42.622;23.194;2022-12-05T01:13:44;18.20;;;10.43;;
5951;SDS011;3001;42.622;23.194;2022-12-05T01:16:12;21.03;;;10.20;;
5951;SDS011;3001;42.622;23.194;2022-12-05T01:18:40;17.80;;;10.80;;
5951;SDS011;3001;42.622;23.194;2022-12-05T01:21:07;29.10;;;11.40;;
5951;SDS011;3001;42.622;23.194;2022-12-05T01:23:34;37.83;;;12.20;;
5951;SDS011;3001;42.622;23.194;2022-12-05T01:26:03;16.80;;;10.73;;
5951;SDS011;3001;42.622;23.194;2022-12-05T01:28:34;15.43;;;10.53;;
5951;SDS011;3001;42.622;23.194;2022-12-05T01:31:04;15.10;;;10.43;;
5951;SDS011;3001;42.622;23.194;2022-12-05T01:33:32;14.10;;;10.07;;
5951;SDS011;3001;42.622;23.194;2022-12-05T01:36:00;17.47;;;12.23;;
5951;SDS011;3001;42.622;23.194;2022-12-05T01:38:26;36.60;;;12.30;;
5951;SDS011;3001;42.622;23.194;2022-12-05T01:41:00;22.93;;;11.60;;
5951;SDS011;3001;42.622;23.194;2022-12-05T01:43:28;15.97;;;10.90;;
5951;SDS011;3001;42.622;23.194;2022-12-05T01:45:56;15.47;;;10.43;;
5951;SDS011;3001;42.622;23.194;2022-12-05T01:48:23;22.27;;;9.70;;
5951;SDS011;3001;42.622;23.194;2022-12-05T01:50:55;15.90;;;10.63;;
5951;SDS011;3001;42.622;23.194;2022-12-05T01:53:24;27.90;;;10.40;;
5951;SDS011;3001;42.622;23.194;2022-12-05T01:55:52;17.93;;;10.40;;
5951;SDS011;3001;42.622;23.194;2022-12-05T01:58:20;29.80;;;10.93;;
5951;SDS011;3001;42.622;23.194;2022-12-05T02:00:49;12.73;;;9.47;;
5951;SDS011;3001;42.622;23.194;2022-12-05T02:03:17;18.63;;;10.73;;
5951;SDS011;3001;42.622;23.194;2022-12-05T02:05:46;14.67;;;10.87;;
5951;SDS011;3001;42.622;23.194;2022-12-05T02:08:16;18.60;;;10.83;;
5951;SDS011;3001;42.622;23.194;2022-12-05T02:10:43;19.70;;;12.10;;
5951;SDS011;3001;42.622;23.194;2022-12-05T02:13:24;19.80;;;11.03;;
5951;SDS011;3001;42.622;23.194;2022-12-05T02:16:10;24.10;;;11.93;;
5951;SDS011;3001;42.622;23.194;2022-12-05T02:18:49;39.70;;;12.30;;
5951;SDS011;3001;42.622;23.194;2022-12-05T02:21:40;22.77;;;11.33;;
5951;SDS011;3001;42.622;23.194;2022-12-05T02:24:26;38.97;;;11.37;;
5951;SDS011;3001;42.622;23.194;2022-12-05T02:27:29;32.87;;;10.43;;
5951;SDS011;3001;42.622;23.194;2022-12-05T02:30:11;20.60;;;10.67;;
5951;SDS011;3001;42.622;23.194;2022-12-05T02:32:49;23.83;;;11.23;;
5951;SDS011;3001;42.622;23.194;2022-12-05T02:35:30;30.83;;;11.57;;
5951;SDS011;3001;42.622;23.194;2022-12-05T02:38:12;15.17;;;10.63;;
5951;SDS011;3001;42.622;23.194;2022-12-05T02:40:46;16.87;;;10.87;;
5951;SDS011;3001;42.622;23.194;2022-12-05T02:43:21;20.10;;;10.60;;
5951;SDS011;3001;42.622;23.194;2022-12-05T02:45:57;14.77;;;9.80;;
5951;SDS011;3001;42.622;23.194;2022-12-05T02:48:28;33.17;;;10.70;;
5951;SDS011;3001;42.622;23.194;2022-12-05T02:50:58;18.23;;;11.23;;
5951;SDS011;3001;42.622;23.194;2022-12-05T02:53:27;34.30;;;12.43;;
5951;SDS011;3001;42.622;23.194;2022-12-05T02:55:56;177.50;;;14.60;;
5951;SDS011;3001;42.622;23.194;2022-12-05T02:58:25;38.00;;;12.43;;
5951;SDS011;3001;42.622;23.194;2022-12-05T03:00:58;150.70;;;16.13;;
5951;SDS011;3001;42.622;23.194;2022-12-05T03:03:25;73.23;;;12.57;;
5951;SDS011;3001;42.622;23.194;2022-12-05T03:05:54;23.40;;;11.43;;
5951;SDS011;3001;42.622;23.194;2022-12-05T03:08:26;36.13;;;11.90;;
5951;SDS011;3001;42.622;23.194;2022-12-05T03:10:57;41.03;;;12.83;;
5951;SDS011;3001;42.622;23.194;2022-12-05T03:13:27;101.17;;;12.67;;
5951;SDS011;3001;42.622;23.194;2022-12-05T03:15:59;14.70;;;10.43;;
5951;SDS011;3001;42.622;23.194;2022-12-05T03:18:31;45.43;;;11.97;;
5951;SDS011;3001;42.622;23.194;2022-12-05T03:21:04;17.40;;;11.33;;
5951;SDS011;3001;42.622;23.194;2022-12-05T03:23:37;38.80;;;12.30;;
5951;SDS011;3001;42.622;23.194;2022-12-05T03:26:09;17.23;;;10.97;;
5951;SDS011;3001;42.622;23.194;2022-12-05T03:28:44;20.80;;;9.80;;
5951;SDS011;3001;42.622;23.194;2022-12-05T03:31:23;26.40;;;9.83;;
5951;SDS011;3001;42.622;23.194;2022-12-05T03:34:00;16.20;;;9.90;;
5951;SDS011;3001;42.622;23.194;2022-12-05T03:36:31;12.93;;;9.73;;
5951;SDS011;3001;42.622;23.194;2022-12-05T03:39:05;18.40;;;9.67;;
5951;SDS011;3001;42.622;23.194;2022-12-05T03:41:37;14.60;;;10.00;;
5951;SDS011;3001;42.622;23.194;2022-12-05T03:44:07;16.57;;;10.17;;
5951;SDS011;3001;42.622;23.194;2022-12-05T03:46:42;19.80;;;10.23;;
5951;SDS011;3001;42.622;23.194;2022-12-05T03:49:12;15.33;;;10.93;;
5951;SDS011;3001;42.622;23.194;2022-12-05T03:51:46;15.90;;;10.77;;
5951;SDS011;3001;42.622;23.194;2022-12-05T03:54:21;15.73;;;10.37;;
5951;SDS011;3001;42.622;23.194;2022-12-05T03:56:51;16.10;;;9.80;;
5951;SDS011;3001;42.622;23.194;2022-12-05T03:59:25;19.47;;;10.67;;
5951;SDS011;3001;42.622;23.194;2022-12-05T04:01:57;20.53;;;11.30;;
5951;SDS011;3001;42.622;23.194;2022-12-05T04:04:28;15.40;;;10.43;;
5951;SDS011;3001;42.622;23.194;2022-12-05T04:07:01;17.47;;;10.80;;
5951;SDS011;3001;42.622;23.194;2022-12-05T04:09:32;23.90;;;10.30;;
5951;SDS011;3001;42.622;23.194;2022-12-05T04:12:05;14.37;;;10.23;;
5951;SDS011;3001;42.622;23.194;2022-12-05T04:14:36;14.37;;;9.83;;
5951;SDS011;3001;42.622;23.194;2022-12-05T04:17:08;87.27;;;11.27;;
5951;SDS011;3001;42.622;23.194;2022-12-05T04:19:43;21.03;;;9.97;;
5951;SDS011;3001;42.622;23.194;2022-12-05T04:22:30;25.10;;;10.37;;
5951;SDS011;3001;42.622;23.194;2022-12-05T04:24:58;155.53;;;13.97;;
5951;SDS011;3001;42.622;23.194;2022-12-05T04:27:47;39.50;;;11.30;;
5951;SDS011;3001;42.622;23.194;2022-12-05T04:30:19;105.03;;;12.20;;
5951;SDS011;3001;42.622;23.194;2022-12-05T04:32:50;24.33;;;12.33;;
5951;SDS011;3001;42.622;23.194;2022-12-05T04:35:27;22.97;;;12.53;;
5951;SDS011;3001;42.622;23.194;2022-12-05T04:37:57;25.60;;;12.73;;
5951;SDS011;3001;42.622;23.194;2022-12-05T04:40:28;20.50;;;11.80;;
5951;SDS011;3001;42.622;23.194;2022-12-05T04:43:00;37.00;;;15.27;;
5951;SDS011;3001;42.622;23.194;2022-12-05T04:45:29;65.13;;;30.37;;
5951;SDS011;3001;42.622;23.194;2022-12-05T04:48:00;60.93;;;28.07;;
5951;SDS011;3001;42.622;23.194;2022-12-05T04:50:31;54.93;;;15.33;;
5951;SDS011;3001;42.622;23.194;2022-12-05T04:52:59;31.10;;;12.20;;
5951;SDS011;3001;42.622;23.194;2022-12-05T04:55:28;16.30;;;11.10;;
5951;SDS011;3001;42.622;23.194;2022-12-05T04:58:02;18.70;;;12.10;;
5951;SDS011;3001;42.622;23.194;2022-12-05T05:00:33;52.00;;;19.17;;
5951;SDS011;3001;42.622;23.194;2022-12-05T05:03:09;82.83;;;27.80;;
5951;SDS011;3001;42.622;23.194;2022-12-05T05:05:43;87.03;;;26.30;;
5951;SDS011;3001;42.622;23.194;2022-12-05T05:08:14;46.97;;;22.90;;
5951;SDS011;3001;42.622;23.194;2022-12-05T05:10:44;67.13;;;30.67;;
5951;SDS011;3001;42.622;23.194;2022-12-05T05:13:16;50.87;;;22.77;;
5951;SDS011;3001;42.622;23.194;2022-12-05T05:15:43;32.53;;;16.80;;
5951;SDS011;3001;42.622;23.194;2022-12-05T05:18:11;56.47;;;24.37;;
5951;SDS011;3001;42.622;23.194;2022-12-05T05:20:38;50.30;;;20.37;;
5951;SDS011;3001;42.622;23.194;2022-12-05T05:23:05;32.53;;;17.13;;
5951;SDS011;3001;42.622;23.194;2022-12-05T05:25:31;28.37;;;14.30;;
5951;SDS011;3001;42.622;23.194;2022-12-05T05:27:58;25.73;;;13.87;;
5951;SDS011;3001;42.622;23.194;2022-12-05T05:30:25;23.37;;;13.43;;
5951;SDS011;3001;42.622;23.194;2022-12-05T05:32:52;25.00;;;12.77;;
5951;SDS011;3001;42.622;23.194;2022-12-05T05:35:21;27.30;;;13.90;;
5951;SDS011;3001;42.622;23.194;2022-12-05T05:37:47;39.10;;;15.77;;
5951;SDS011;3001;42.622;23.194;2022-12-05T05:40:14;36.73;;;15.63;;
5951;SDS011;3001;42.622;23.194;2022-12-05T05:42:42;35.43;;;15.63;;
5951;SDS011;3001;42.622;23.194;2022-12-05T05:45:09;34.53;;;16.97;;
5951;SDS011;3001;42.622;23.194;2022-12-05T05:47:36;27.90;;;16.13;;
5951;SDS011;3001;42.622;23.194;2022-12-05T05:50:04;24.77;;;15.30;;
5951;SDS011;3001;42.622;23.194;2022-12-05T05:52:34;26.83;;;15.30;;
5951;SDS011;3001;42.622;23.194;2022-12-05T05:55:03;30.67;;;15.40;;
5951;SDS011;3001;42.622;23.194;2022-12-05T05:57:32;40.27;;;20.27;;
5951;SDS011;3001;42.622;23.194;2022-12-05T05:59:59;42.97;;;21.13;;
5951;SDS011;3001;42.622;23.194;2022-12-05T06:02:29;44.50;;;20.40;;
5951;SDS011;3001;42.622;23.194;2022-12-05T06:04:57;48.23;;;21.23;;
5951;SDS011;3001;42.622;23.194;2022-12-05T06:07:24;39.40;;;21.37;;
5951;SDS011;3001;42.622;23.194;2022-12-05T06:09:52;35.00;;;19.93;;
5951;SDS011;3001;42.622;23.194;2022-12-05T06:12:19;38.63;;;19.20;;
5951;SDS011;3001;42.622;23.194;2022-12-05T06:14:46;32.80;;;17.47;;
5951;SDS011;3001;42.622;23.194;2022-12-05T06:17:13;34.40;;;18.93;;
5951;SDS011;3001;42.622;23.194;2022-12-05T06:19:40;35.93;;;19.63;;
5951;SDS011;3001;42.622;23.194;2022-12-05T06:22:07;40.87;;;21.53;;
5951;SDS011;3001;42.622;23.194;2022-12-05T06:24:33;40.33;;;21.93;;
5951;SDS011;3001;42.622;23.194;2022-12-05T06:27:01;39.43;;;20.30;;
5951;SDS011;3001;42.622;23.194;2022-12-05T06:29:28;40.07;;;21.27;;
5951;SDS011;3001;42.622;23.194;2022-12-05T06:31:55;35.80;;;20.47;;
5951;SDS011;3001;42.622;23.194;2022-12-05T06:34:22;26.93;;;16.40;;
5951;SDS011;3001;42.622;23.194;2022-12-05T06:36:49;24.73;;;14.87;;
5951;SDS011;3001;42.622;23.194;2022-12-05T06:39:15;17.67;;;12.40;;
5951;SDS011;3001;42.622;23.194;2022-12-05T06:41:42;26.50;;;14.57;;
5951;SDS011;3001;42.622;23.194;2022-12-05T06:44:11;25.80;;;15.60;;
5951;SDS011;3001;42.622;23.194;2022-12-05T06:46:38;34.23;;;17.20;;
5951;SDS011;3001;42.622;23.194;2022-12-05T06:49:04;32.33;;;18.57;;
5951;SDS011;3001;42.622;23.194;2022-12-05T06:51:31;27.13;;;15.97;;
5951;SDS011;3001;42.622;23.194;2022-12-05T06:53:58;35.80;;;20.70;;
5951;SDS011;3001;42.622;23.194;2022-12-05T06:56:25;37.87;;;23.43;;
5951;SDS011;3001;42.622;23.194;2022-12-05T06:58:52;31.90;;;19.57;;
5951;SDS011;3001;42.622;23.194;2022-12-05T07:01:21;27.33;;;18.47;;
5951;SDS011;3001;42.622;23.194;2022-12-05T07:04:04;24.90;;;16.37;;
5951;SDS011;3001;42.622;23.194;2022-12-05T07:06:32;27.13;;;16.23;;
5951;SDS011;3001;42.622;23.194;2022-12-05T07:08:59;29.80;;;17.73;;
5951;SDS011;3001;42.622;23.194;2022-12-05T07:11:26;24.60;;;15.70;;
5951;SDS011;3001;42.622;23.194;2022-12-05T07:13:53;25.50;;;15.53;;
5951;SDS011;3001;42.622;23.194;2022-12-05T07:16:21;26.67;;;15.60;;
5951;SDS011;3001;42.622;23.194;2022-12-05T07:18:48;27.20;;;17.50;;
5951;SDS011;3001;42.622;23.194;2022-12-05T07:21:15;28.67;;;17.33;;
5951;SDS011;3001;42.622;23.194;2022-12-05T07:23:44;31.43;;;16.67;;
5951;SDS011;3001;42.622;23.194;2022-12-05T07:26:12;30.23;;;16.33;;
5951;SDS011;3001;42.622;23.194;2022-12-05T07:28:40;27.30;;;16.47;;
5951;SDS011;3001;42.622;23.194;2022-12-05T07:31:08;26.77;;;15.67;;
5951;SDS011;3001;42.622;23.194;2022-12-05T07:33:38;24.67;;;13.97;;
5951;SDS011;3001;42.622;23.194;2022-12-05T07:36:06;26.50;;;15.30;;
5951;SDS011;3001;42.622;23.194;2022-12-05T07:38:35;31.20;;;14.17;;
5951;SDS011;3001;42.622;23.194;2022-12-05T07:41:03;28.23;;;15.13;;
5951;SDS011;3001;42.622;23.194;2022-12-05T07:43:31;26.73;;;15.70;;
5951;SDS011;3001;42.622;23.194;2022-12-05T07:46:00;28.37;;;15.90;;
5951;SDS011;3001;42.622;23.194;2022-12-05T07:48:27;29.40;;;18.37;;
5951;SDS011;3001;42.622;23.194;2022-12-05T07:50:58;32.57;;;19.00;;
5951;SDS011;3001;42.622;23.194;2022-12-05T07:53:26;34.47;;;19.43;;
5951;SDS011;3001;42.622;23.194;2022-12-05T07:55:54;29.00;;;18.43;;
5951;SDS011;3001;42.622;23.194;2022-12-05T07:58:23;31.20;;;17.67;;
5951;SDS011;3001;42.622;23.194;2022-12-05T08:00:50;32.40;;;18.70;;
5951;SDS011;3001;42.622;23.194;2022-12-05T08:03:17;35.83;;;20.27;;
5951;SDS011;3001;42.622;23.194;2022-12-05T08:05:43;41.37;;;21.13;;
5951;SDS011;3001;42.622;23.194;2022-12-05T08:08:11;38.17;;;21.50;;
5951;SDS011;3001;42.622;23.194;2022-12-05T08:10:39;40.07;;;20.03;;
5951;SDS011;3001;42.622;23.194;2022-12-05T08:13:05;46.97;;;21.47;;
5951;SDS011;3001;42.622;23.194;2022-12-05T08:15:33;44.60;;;20.17;;
5951;SDS011;3001;42.622;23.194;2022-12-05T08:18:00;34.07;;;21.27;;
5951;SDS011;3001;42.622;23.194;2022-12-05T08:20:27;38.57;;;21.60;;
5951;SDS011;3001;42.622;23.194;2022-12-05T08:22:54;36.57;;;21.03;;
5951;SDS011;3001;42.622;23.194;2022-12-05T08:25:22;36.87;;;20.70;;
5951;SDS011;3001;42.622;23.194;2022-12-05T08:27:49;35.60;;;20.80;;
5951;SDS011;3001;42.622;23.194;2022-12-05T08:30:16;35.00;;;20.60;;
5951;SDS011;3001;42.622;23.194;2022-12-05T08:32:43;42.57;;;21.37;;
5951;SDS011;3001;42.622;23.194;2022-12-05T08:35:10;40.80;;;23.63;;
5951;SDS011;3001;42.622;23.194;2022-12-05T08:37:37;48.67;;;25.07;;
5951;SDS011;3001;42.622;23.194;2022-12-05T08:40:04;41.57;;;23.73;;
5951;SDS011;3001;42.622;23.194;2022-12-05T08:42:33;41.77;;;22.33;;
5951;SDS011;3001;42.622;23.194;2022-12-05T08:45:00;35.87;;;21.43;;
5951;SDS011;3001;42.622;23.194;2022-12-05T08:47:26;36.17;;;22.47;;
5951;SDS011;3001;42.622;23.194;2022-12-05T08:49:53;35.13;;;19.97;;
5951;SDS011;3001;42.622;23.194;2022-12-05T08:52:20;34.53;;;19.93;;
5951;SDS011;3001;42.622;23.194;2022-12-05T08:54:47;28.90;;;19.40;;
5951;SDS011;3001;42.622;23.194;2022-12-05T08:57:14;29.67;;;18.33;;
5951;SDS011;3001;42.622;23.194;2022-12-05T08:59:42;30.57;;;18.83;;
5951;SDS011;3001;42.622;23.194;2022-12-05T09:02:09;26.80;;;18.33;;
5951;SDS011;3001;42.622;23.194;2022-12-05T09:04:36;27.17;;;18.20;;
5951;SDS011;3001;42.622;23.194;2022-12-05T09:07:03;31.63;;;19.23;;
5951;SDS011;3001;42.622;23.194;2022-12-05T09:09:31;51.13;;;29.50;;
5951;SDS011;3001;42.622;23.194;2022-12-05T09:11:57;47.03;;;28.33;;
5951;SDS011;3001;42.622;23.194;2022-12-05T09:14:25;36.60;;;24.30;;
5951;SDS011;3001;42.622;23.194;2022-12-05T09:16:58;33.70;;;21.87;;
5951;SDS011;3001;42.622;23.194;2022-12-05T09:19:26;26.87;;;19.23;;
5951;SDS011;3001;42.622;23.194;2022-12-05T09:21:54;25.00;;;17.30;;
5951;SDS011;3001;42.622;23.194;2022-12-05T09:24:22;29.13;;;17.07;;
5951;SDS011;3001;42.622;23.194;2022-12-05T09:26:49;33.83;;;18.70;;
5951;SDS011;3001;42.622;23.194;2022-12-05T09:29:16;30.23;;;19.90;;
5951;SDS011;3001;42.622;23.194;2022-12-05T09:31:43;30.70;;;20.30;;
5951;SDS011;3001;42.622;23.194;2022-12-05T09:34:12;30.77;;;19.00;;
5951;SDS011;3001;42.622;23.194;2022-12-05T09:36:40;25.03;;;18.17;;
5951;SDS011;3001;42.622;23.194;2022-12-05T09:39:07;28.43;;;18.70;;
5951;SDS011;3001;42.622;23.194;2022-12-05T09:44:32;27.53;;;15.63;;
5951;SDS011;3001;42.622;23.194;2022-12-05T09:47:10;32.23;;;17.70;;
5951;SDS011;3001;42.622;23.194;2022-12-05T09:49:45;26.07;;;17.60;;
5951;SDS011;3001;42.622;23.194;2022-12-05T09:52:17;27.47;;;17.53;;
5951;SDS011;3001;42.622;23.194;2022-12-05T09:54:50;33.90;;;18.27;;
5951;SDS011;3001;42.622;23.194;2022-12-05T09:57:19;30.03;;;18.07;;
5951;SDS011;3001;42.622;23.194;2022-12-05T09:59:54;27.30;;;16.83;;
5951;SDS011;3001;42.622;23.194;2022-12-05T10:02:23;26.40;;;16.57;;
5951;SDS011;3001;42.622;23.194;2022-12-05T10:04:58;27.53;;;16.33;;
5951;SDS011;3001;42.622;23.194;2022-12-05T10:07:31;27.73;;;16.93;;
5951;SDS011;3001;42.622;23.194;2022-12-05T10:10:07;20.43;;;14.37;;
5951;SDS011;3001;42.622;23.194;2022-12-05T10:12:53;20.27;;;14.97;;
5951;SDS011;3001;42.622;23.194;2022-12-05T10:15:29;24.03;;;15.93;;
5951;SDS011;3001;42.622;23.194;2022-12-05T10:17:58;25.07;;;16.30;;
5951;SDS011;3001;42.622;23.194;2022-12-05T10:20:31;28.10;;;16.33;;
5951;SDS011;3001;42.622;23.194;2022-12-05T10:23:02;26.60;;;15.80;;
5951;SDS011;3001;42.622;23.194;2022-12-05T10:25:33;26.43;;;16.67;;
5951;SDS011;3001;42.622;23.194;2022-12-05T10:28:02;26.30;;;16.80;;
5951;SDS011;3001;42.622;23.194;2022-12-05T10:30:35;23.13;;;15.97;;
5951;SDS011;3001;42.622;23.194;2022-12-05T10:33:10;25.53;;;15.40;;
5951;SDS011;3001;42.622;23.194;2022-12-05T10:35:41;23.50;;;16.00;;
5951;SDS011;3001;42.622;23.194;2022-12-05T10:38:10;23.33;;;16.13;;
5951;SDS011;3001;42.622;23.194;2022-12-05T10:40:43;22.73;;;15.47;;
5951;SDS011;3001;42.622;23.194;2022-12-05T10:43:13;21.20;;;13.90;;
5951;SDS011;3001;42.622;23.194;2022-12-05T10:45:46;26.13;;;14.13;;
5951;SDS011;3001;42.622;23.194;2022-12-05T10:48:14;21.37;;;16.37;;
5951;SDS011;3001;42.622;23.194;2022-12-05T10:50:44;20.27;;;14.10;;
5951;SDS011;3001;42.622;23.194;2022-12-05T10:53:14;16.87;;;11.77;;
5951;SDS011;3001;42.622;23.194;2022-12-05T10:55:44;17.70;;;11.77;;
5951;SDS011;3001;42.622;23.194;2022-12-05T10:58:13;16.70;;;12.57;;
5951;SDS011;3001;42.622;23.194;2022-12-05T11:00:41;19.90;;;14.90;;
5951;SDS011;3001;42.622;23.194;2022-12-05T11:03:26;19.93;;;14.27;;
5951;SDS011;3001;42.622;23.194;2022-12-05T11:05:57;22.17;;;13.60;;
5951;SDS011;3001;42.622;23.194;2022-12-05T11:08:27;21.80;;;15.67;;
5951;SDS011;3001;42.622;23.194;2022-12-05T11:11:02;20.70;;;14.87;;
5951;SDS011;3001;42.622;23.194;2022-12-05T11:13:31;23.03;;;15.27;;
5951;SDS011;3001;42.622;23.194;2022-12-05T11:15:58;20.53;;;13.37;;
5951;SDS011;3001;42.622;23.194;2022-12-05T11:18:26;16.67;;;12.97;;
5951;SDS011;3001;42.622;23.194;2022-12-05T11:20:57;21.27;;;14.63;;
5951;SDS011;3001;42.622;23.194;2022-12-05T11:23:34;20.47;;;14.13;;
5951;SDS011;3001;42.622;23.194;2022-12-05T11:26:01;14.93;;;13.30;;
5951;SDS011;3001;42.622;23.194;2022-12-05T11:28:30;13.30;;;12.00;;
5951;SDS011;3001;42.622;23.194;2022-12-05T11:30:59;21.50;;;15.03;;
5951;SDS011;3001;42.622;23.194;2022-12-05T11:33:27;19.20;;;14.37;;
5951;SDS011;3001;42.622;23.194;2022-12-05T11:36:00;17.90;;;13.83;;
5951;SDS011;3001;42.622;23.194;2022-12-05T11:38:31;20.07;;;15.77;;
5951;SDS011;3001;42.622;23.194;2022-12-05T11:41:01;23.53;;;16.27;;
5951;SDS011;3001;42.622;23.194;2022-12-05T11:43:46;19.03;;;14.47;;
5951;SDS011;3001;42.622;23.194;2022-12-05T11:46:44;19.50;;;15.10;;
5951;SDS011;3001;42.622;23.194;2022-12-05T11:49:25;18.07;;;13.73;;
5951;SDS011;3001;42.622;23.194;2022-12-05T11:52:06;16.50;;;14.70;;
5951;SDS011;3001;42.622;23.194;2022-12-05T11:54:53;18.87;;;14.73;;
5951;SDS011;3001;42.622;23.194;2022-12-05T12:00:21;13.93;;;12.53;;
5951;SDS011;3001;42.622;23.194;2022-12-05T12:06:00;12.77;;;10.87;;
5951;SDS011;3001;42.622;23.194;2022-12-05T12:08:41;12.63;;;11.43;;
5951;SDS011;3001;42.622;23.194;2022-12-05T12:11:23;15.40;;;11.63;;
5951;SDS011;3001;42.622;23.194;2022-12-05T12:13:59;14.43;;;11.60;;
5951;SDS011;3001;42.622;23.194;2022-12-05T12:16:34;13.70;;;12.30;;
5951;SDS011;3001;42.622;23.194;2022-12-05T12:19:18;15.03;;;12.30;;
5951;SDS011;3001;42.622;23.194;2022-12-05T12:22:03;15.70;;;12.17;;
5951;SDS011;3001;42.622;23.194;2022-12-05T12:24:42;15.00;;;11.83;;
5951;SDS011;3001;42.622;23.194;2022-12-05T12:27:26;15.40;;;12.07;;
5951;SDS011;3001;42.622;23.194;2022-12-05T12:30:02;14.67;;;12.80;;
5951;SDS011;3001;42.622;23.194;2022-12-05T12:32:37;13.13;;;11.83;;
5951;SDS011;3001;42.622;23.194;2022-12-05T12:35:22;10.90;;;9.80;;
5951;SDS011;3001;42.622;23.194;2022-12-05T12:37:59;12.57;;;11.23;;
5951;SDS011;3001;42.622;23.194;2022-12-05T12:40:48;11.23;;;10.03;;
5951;SDS011;3001;42.622;23.194;2022-12-05T12:43:29;10.80;;;9.70;;
5951;SDS011;3001;42.622;23.194;2022-12-05T12:46:13;11.53;;;10.40;;
5951;SDS011;3001;42.622;23.194;2022-12-05T12:48:59;10.87;;;9.80;;
5951;SDS011;3001;42.622;23.194;2022-12-05T12:51:44;11.50;;;10.30;;
5951;SDS011;3001;42.622;23.194;2022-12-05T12:57:21;11.67;;;10.63;;
5951;SDS011;3001;42.622;23.194;2022-12-05T12:59:57;16.20;;;10.30;;
5951;SDS011;3001;42.622;23.194;2022-12-05T13:02:48;11.63;;;10.27;;
5951;SDS011;3001;42.622;23.194;2022-12-05T13:05:20;10.90;;;9.90;;
5951;SDS011;3001;42.622;23.194;2022-12-05T13:07:56;12.97;;;10.77;;
5951;SDS011;3001;42.622;23.194;2022-12-05T13:10:27;11.00;;;9.93;;
5951;SDS011;3001;42.622;23.194;2022-12-05T13:13:00;14.57;;;10.27;;
5951;SDS011;3001;42.622;23.194;2022-12-05T13:15:31;13.30;;;11.40;;
5951;SDS011;3001;42.622;23.194;2022-12-05T13:18:01;19.23;;;12.20;;
5951;SDS011;3001;42.622;23.194;2022-12-05T13:20:31;14.87;;;12.73;;
5951;SDS011;3001;42.622;23.194;2022-12-05T13:23:01;13.83;;;12.40;;
5951;SDS011;3001;42.622;23.194;2022-12-05T13:25:32;11.87;;;10.67;;
5951;SDS011;3001;42.622;23.194;2022-12-05T13:28:05;15.37;;;11.47;;
5951;SDS011;3001;42.622;23.194;2022-12-05T13:30:47;15.47;;;11.70;;
5951;SDS011;3001;42.622;23.194;2022-12-05T13:33:23;15.63;;;12.07;;
5951;SDS011;3001;42.622;23.194;2022-12-05T13:35:53;17.77;;;11.87;;
5951;SDS011;3001;42.622;23.194;2022-12-05T13:38:40;15.27;;;11.40;;
5951;SDS011;3001;42.622;23.194;2022-12-05T13:41:36;23.23;;;14.87;;
5951;SDS011;3001;42.622;23.194;2022-12-05T13:44:28;32.33;;;18.70;;
5951;SDS011;3001;42.622;23.194;2022-12-05T13:47:00;26.63;;;16.00;;
5951;SDS011;3001;42.622;23.194;2022-12-05T13:49:32;18.80;;;14.40;;
5951;SDS011;3001;42.622;23.194;2022-12-05T13:52:04;24.60;;;17.27;;
5951;SDS011;3001;42.622;23.194;2022-12-05T13:54:40;19.37;;;15.57;;
5951;SDS011;3001;42.622;23.194;2022-12-05T14:00:20;15.57;;;12.80;;
5951;SDS011;3001;42.622;23.194;2022-12-05T14:02:52;19.07;;;13.80;;
5951;SDS011;3001;42.622;23.194;2022-12-05T14:05:39;20.63;;;14.00;;
5951;SDS011;3001;42.622;23.194;2022-12-05T14:11:16;15.27;;;12.63;;
5951;SDS011;3001;42.622;23.194;2022-12-05T14:13:43;22.17;;;13.90;;
5951;SDS011;3001;42.622;23.194;2022-12-05T14:22:12;21.80;;;14.20;;
5951;SDS011;3001;42.622;23.194;2022-12-05T14:24:59;17.90;;;13.87;;
5951;SDS011;3001;42.622;23.194;2022-12-05T14:27:40;20.17;;;14.57;;
5951;SDS011;3001;42.622;23.194;2022-12-05T14:30:17;25.63;;;16.10;;
5951;SDS011;3001;42.622;23.194;2022-12-05T14:32:49;29.47;;;17.13;;
5951;SDS011;3001;42.622;23.194;2022-12-05T14:35:18;29.60;;;17.43;;
5951;SDS011;3001;42.622;23.194;2022-12-05T14:37:50;30.07;;;17.23;;
5951;SDS011;3001;42.622;23.194;2022-12-05T14:40:19;25.17;;;16.30;;
5951;SDS011;3001;42.622;23.194;2022-12-05T14:42:53;25.37;;;15.60;;
5951;SDS011;3001;42.622;23.194;2022-12-05T14:45:27;30.63;;;17.07;;
5951;SDS011;3001;42.622;23.194;2022-12-05T14:47:59;25.37;;;16.43;;
5951;SDS011;3001;42.622;23.194;2022-12-05T14:50:35;25.97;;;16.93;;
5951;SDS011;3001;42.622;23.194;2022-12-05T14:53:13;30.73;;;16.47;;
5951;SDS011;3001;42.622;23.194;2022-12-05T14:55:45;34.70;;;18.37;;
5951;SDS011;3001;42.622;23.194;2022-12-05T14:58:15;30.10;;;19.80;;
5951;SDS011;3001;42.622;23.194;2022-12-05T15:00:45;35.83;;;21.37;;
5951;SDS011;3001;42.622;23.194;2022-12-05T15:03:23;32.70;;;19.57;;
5951;SDS011;3001;42.622;23.194;2022-12-05T15:05:55;28.87;;;17.87;;
5951;SDS011;3001;42.622;23.194;2022-12-05T15:08:23;23.07;;;16.33;;
5951;SDS011;3001;42.622;23.194;2022-12-05T15:10:51;27.03;;;17.43;;
5951;SDS011;3001;42.622;23.194;2022-12-05T15:13:20;37.13;;;19.87;;
5951;SDS011;3001;42.622;23.194;2022-12-05T15:15:51;31.00;;;18.70;;
5951;SDS011;3001;42.622;23.194;2022-12-05T15:18:26;30.90;;;18.10;;
5951;SDS011;3001;42.622;23.194;2022-12-05T15:20:56;34.67;;;19.43;;
5951;SDS011;3001;42.622;23.194;2022-12-05T15:23:39;29.93;;;18.93;;
5951;SDS011;3001;42.622;23.194;2022-12-05T15:26:20;39.17;;;18.60;;